Log in
NYSE:PFG

Principal Financial Group Institutional Ownership

$39.22
+0.10 (+0.26 %)
(As of 10/30/2020 12:00 AM ET)
Add
Compare
Today's Range
$38.53
Now: $39.22
$39.50
50-Day Range
$37.79
MA: $40.91
$43.52
52-Week Range
$23.31
Now: $39.22
$57.16
Volume1.07 million shs
Average Volume1.67 million shs
Market Capitalization$10.77 billion
P/E RatioN/A
Dividend Yield5.73%
BetaN/A

Institutional Ownership

Institutional Ownership Changes (13F Filings) for Principal Financial Group (NYSE:PFG)

Institutional Ownership Percentage: 68.64%

Institutional Buying and Selling by Quarter


Principal Financial Group (NYSE PFG) Institutional Buying and Selling

Reporting DateHedge FundShares HeldMarket Value% of PortfolioQuarterly Change in SharesOwnership in Company
10/30/2020BNP Paribas Arbitrage SA168,036$6.77M0.0%+38.8%0.061%
10/30/2020Comerica Bank66,900$2.91M0.0%+1.7%0.024%
10/30/2020Prudential PLC1,833,001$73.82M0.4%-15.3%0.668%
10/30/2020BP PLC25,700$1.03M0.0%-7.6%0.009%
10/30/2020Steward Partners Investment Advisory LLC8,812$0.36M0.0%+8.2%0.003%
10/30/2020West Bancorporation Inc.1,019$41K0.0%+71.3%0.000%
10/30/2020Banque Cantonale Vaudoise6,855$0.28M0.0%-8.0%0.002%
10/30/2020Amalgamated Bank15,218$0.61M0.0%-2.0%0.006%
10/30/2020Toronto Dominion Bank135,517$5.46M0.0%+0.4%0.049%
10/29/2020OLD National Bancorp IN37,298$1.50M0.1%+20.3%0.014%
10/29/2020Alaska Permanent Fund Corp55,500$2.24M0.0%+196.5%0.020%
10/29/2020Dupont Capital Management Corp27,040$1.09M0.0%-36.3%0.010%
10/29/2020DekaBank Deutsche Girozentrale76,706$3.02M0.0%+47.1%0.028%
10/29/2020Hartford Investment Management Co.29,224$1.18M0.0%-3.4%0.011%
10/29/2020Cambridge Investment Research Advisors Inc.47,320$1.91M0.0%+8.6%0.017%
10/29/2020Sumitomo Mitsui DS Asset Management Company Ltd30,146$1.21M0.0%-22.5%0.011%
10/29/2020Robeco Institutional Asset Management B.V.481,901$19.41M0.1%+331.3%0.176%
10/28/2020Convergence Investment Partners LLC35,474$1.43M0.5%+114.6%0.013%
10/28/2020New Mexico Educational Retirement Board16,354$0.66M0.0%-5.8%0.006%
10/28/2020First Quadrant L P CA1,096$44K0.0%N/A0.000%
10/28/2020OLD Second National Bank of Aurora1,571$63K0.0%-48.8%0.001%
10/28/2020KBC Group NV371,759$14.97M0.1%+273.2%0.135%
10/27/2020Unison Advisors LLC62,850$2.53M0.7%+1.3%0.023%
10/27/2020Goelzer Investment Management Inc.174,168$7.01M0.6%-1.4%0.063%
10/27/2020Nicolet Bankshares Inc.7,848$0.32M0.1%-10.8%0.003%
10/27/2020Capital Management Corp VA311,287$12.54M3.9%+4.3%0.113%
10/27/2020Plimoth Trust Co. LLC17,405$0.70M0.2%-4.9%0.006%
10/27/2020New Mexico Educational Retirement Board20,004$1.14M0.1%+15.3%0.007%
10/27/2020State of New Jersey Common Pension Fund D177,923$7.17M0.0%-4.9%0.065%
10/26/2020Palisade Asset Management LLC7,250$0.29M0.0%-12.7%0.003%
10/26/2020State of Michigan Retirement System68,443$2.76M0.0%+5.2%0.025%
10/26/2020Xponance Inc.78,455$3.16M0.1%-16.0%0.029%
10/26/2020Meritage Portfolio Management76,748$3.09M0.3%-9.3%0.028%
10/26/2020Ellevest Inc.1,691$68K0.0%+127.6%0.001%
10/26/2020Steel Peak Wealth Management LLC7,495$0.30M0.0%N/A0.003%
10/23/2020Pinnacle Associates Ltd.42,920$1.73M0.0%-12.8%0.016%
10/23/2020LSV Asset Management527,029$21.22M0.0%-2.7%0.192%
10/22/2020AMG National Trust Bank154,560$6.22M0.3%-7.7%0.056%
10/22/2020CENTRAL TRUST Co1,168$47K0.0%-20.4%0.000%
10/22/2020NEXT Financial Group Inc10,468$0.42M0.0%N/A0.004%
10/22/2020Forsta AP Fonden64,800$2.61M0.1%+28.6%0.024%
10/21/2020Standard Life Aberdeen plc138,083$5.56M0.0%-8.4%0.050%
10/21/2020Conning Inc.143,521$5.78M0.2%-0.2%0.052%
10/21/2020Sunflower Bank N.A.7,989$0.32M0.1%+4.8%0.003%
10/20/2020Nissay Asset Management Corp Japan ADV28,265$1.14M0.0%+1.9%0.010%
10/20/2020Edmp Inc.40,774$1.64M2.4%-1.3%0.015%
10/20/2020Retirement Systems of Alabama102,899$4.14M0.0%-5.5%0.037%
10/20/2020Nisa Investment Advisors LLC115,148$4.64M0.0%+6.1%0.042%
10/19/2020Candriam Luxembourg S.C.A.199,784$8.05M0.1%+20.1%0.073%
10/19/2020Pacer Advisors Inc.17,751$0.72M0.0%-18.4%0.006%
10/19/2020CWM LLC5,715$0.23M0.0%+4.7%0.002%
10/19/2020Archford Capital Strategies LLC18,457$0.74M0.2%+1.9%0.007%
10/19/2020First Command Bank628$25K0.0%+72.1%0.000%
10/19/2020Louisiana State Employees Retirement System13,000$0.52M0.0%+19.3%0.005%
10/16/2020IBM Retirement Fund8,824$0.36M0.0%+39.0%0.003%
10/16/2020Cadence Capital Management LLC5,908$0.24M0.1%-20.3%0.002%
10/16/2020Clean Yield Group659$27K0.0%+391.8%0.000%
10/16/2020IFM Investors Pty Ltd23,240$0.94M0.0%+15.5%0.008%
10/16/2020Denali Advisors LLC138,300$5.57M1.1%-24.1%0.050%
10/15/2020Campbell & CO Investment Adviser LLC9,106$0.37M0.3%N/A0.003%
10/15/2020Bowling Portfolio Management LLC22,528$0.91M0.2%N/A0.008%
10/14/2020Avantax Advisory Services Inc.5,553$0.22M0.0%N/A0.002%
10/14/2020DNB Asset Management AS38,395$1.55M0.0%+28.4%0.014%
10/13/2020Old North State Trust LLC1,097$44K0.0%N/A0.000%
10/13/2020Regentatlantic Capital LLC50,788$2.05M0.1%+1.2%0.019%
10/13/2020Brookstone Capital Management6,690$0.27M0.0%N/A0.002%
10/13/2020Beacon Financial Group67,548$2.72M0.5%-2.4%0.025%
10/9/2020Envestnet Asset Management Inc.112,958$4.55M0.0%+18.6%0.041%
10/8/2020Crossmark Global Holdings Inc.174,736$7.04M0.2%-2.1%0.064%
10/8/2020Wedge Capital Management L L P NC470,188$18.93M0.3%-19.3%0.171%
10/8/2020Sound Income Strategies LLC58,059$2.34M0.6%+21.4%0.021%
10/8/2020Rockland Trust Co.24,666$0.99M0.1%-8.8%0.009%
10/8/2020Cypress Capital Group9,188$0.37M0.1%+40.4%0.003%
10/8/2020Martin Capital Partners LLC6,723$0.27M0.2%+5.6%0.002%
10/5/2020State of Alaska Department of Revenue60,010$2.42M0.0%-27.7%0.022%
9/15/2020Two Sigma Advisers LP245,877$10.21M0.0%+6.4%0.090%
9/15/2020Schonfeld Strategic Advisors LLC73,553$3.06M0.1%-7.0%0.027%
9/11/2020FinTrust Capital Advisors LLC2,696$0.11M0.0%+2,596.0%0.001%
9/11/2020Mitsubishi UFJ Trust & Banking Corp272,978$11.34M0.0%-7.4%0.099%
9/4/2020Principal Financial Group Inc.358,221$14.88M0.0%+2.5%0.130%
9/4/2020Teachers Retirement System of The State of Kentucky24,000$1M0.0%-5.9%0.009%
8/31/2020Bridgeway Capital Management Inc.657,350$27.31M0.6%-9.5%0.239%
8/28/2020Toronto Dominion Bank135,027$5.61M0.0%-1.3%0.049%
8/27/2020Neuberger Berman Group LLC6,163$0.25M0.0%-4.5%0.002%
8/26/2020Handelsbanken Fonder AB81,576$3.39M0.0%N/A0.030%
8/25/2020Nuveen Asset Management LLC1,225,522$50.91M0.0%-10.8%0.446%
8/20/2020Charles Schwab Investment Management Inc.3,057,231$127M0.1%+35.1%1.114%
8/17/2020AQR Capital Management LLC6,773$0.27M0.0%-67.1%0.002%
8/17/2020Engineers Gate Manager LP9,149$0.38M0.0%-80.3%0.003%
8/17/2020California State Teachers Retirement System507,735$21.09M0.0%+5.6%0.185%
8/17/2020Great West Life Assurance Co. Can236,914$9.80M0.0%+2.4%0.086%
8/17/2020Public Employees Retirement System of Ohio101,807$4.23M0.0%-7.2%0.037%
8/17/2020Sei Investments Co.125,520$5.23M0.0%+11.0%0.046%
8/17/2020Stellar Capital Management LLC50,555$2.10M1.3%N/A0.018%
8/17/2020Cigna Investments Inc. New8,385$0.35M0.0%+11.4%0.003%
8/17/2020Private Advisor Group LLC4,805$0.20M0.0%N/A0.002%
8/14/2020Wealthfront Advisers LLC32,895$1.37M0.0%N/A0.012%
8/14/2020Captrust Financial Advisors7,747$0.31M0.0%+5.5%0.003%
8/14/2020Canada Pension Plan Investment Board14,667$0.61M0.0%-93.8%0.005%
8/14/2020Pinnacle Associates Ltd.49,246$2.05M0.1%-49.5%0.018%
(Data available from 1/1/2016 forward)
This page was last updated on 10/31/2020 by MarketBeat.com Staff

Enter your email address below to receive a concise daily summary of analysts' upgrades, downgrades and new coverage with MarketBeat.com's FREE daily email newsletter.